Time;durP1;ratioP1;P1;durP2;ratioP2;P2;SDS_P1;SDS_P2;PMS_P1;PMS_P2;Temp;Humidity;BMP_temperature;BMP_pressure;BME280_temperature;BME280_humidity;BME280_pressure;Samples;Min_cycle;Max_cycle;Signal;HPM_P1;HPM_P2
2021/12/11 00:01:54;;;;;;;93.20;36.88;;;;;;;-2.04;82.68;97445.38;1669766;86;27505;-61
2021/12/11 00:04:32;;;;;;;93.17;35.50;;;;;;;-1.99;82.64;97454.79;1669626;85;25738;-61
2021/12/11 00:07:04;;;;;;;90.55;34.98;;;;;;;-1.94;82.68;97462.06;1669539;86;25771;-61
2021/12/11 00:09:45;;;;;;;102.85;39.27;;;;;;;-1.92;82.45;97464.78;1669815;85;25417;-61
2021/12/11 00:12:17;;;;;;;102.17;39.05;;;;;;;-1.88;82.53;97469.08;1669688;86;25896;-61
2021/12/11 00:14:47;;;;;;;68.72;25.80;;;;;;;-1.82;82.56;97467.21;1669692;85;26853;-61
2021/12/11 00:17:21;;;;;;;77.95;31.33;;;;;;;-1.84;82.32;97475.53;1669726;85;30024;-61
2021/12/11 00:19:48;;;;;;;87.78;31.87;;;;;;;-1.92;82.33;97464.78;1669691;85;25448;-61
2021/12/11 00:22:20;;;;;;;94.95;33.05;;;;;;;-1.94;82.28;97466.09;1669413;86;25751;-63
2021/12/11 00:24:47;;;;;;;108.80;35.08;;;;;;;-1.96;82.30;97470.94;1669783;85;25641;-62
2021/12/11 00:27:19;;;;;;;97.05;34.15;;;;;;;-1.96;82.40;97482.46;1669419;84;27493;-61
2021/12/11 00:29:46;;;;;;;85.80;31.75;;;;;;;-1.91;82.74;97491.90;1668756;85;25851;-63
2021/12/11 00:32:23;;;;;;;83.20;30.88;;;;;;;-1.84;82.58;97496.23;1669466;86;25619;-64
2021/12/11 00:34:54;;;;;;;88.50;34.38;;;;;;;-1.84;82.39;97502.39;1669585;86;25747;-66
2021/12/11 00:37:23;;;;;;;89.17;34.67;;;;;;;-1.83;82.30;97497.83;1670276;85;25604;-64
2021/12/11 00:39:55;;;;;;;85.45;33.15;;;;;;;-1.83;82.34;97500.00;1669496;84;27442;-64
2021/12/11 00:42:31;;;;;;;88.35;33.05;;;;;;;-1.81;82.21;97507.23;1669672;85;25912;-60
2021/12/11 00:44:55;;;;;;;81.00;31.15;;;;;;;-1.75;82.47;97520.70;1669109;86;25749;-62
2021/12/11 00:47:27;;;;;;;90.50;33.67;;;;;;;-1.69;82.43;97522.34;1669282;85;25808;-62
2021/12/11 00:50:08;;;;;;;87.42;32.10;;;;;;;-1.65;82.30;97519.41;1669519;86;25616;-61
2021/12/11 00:52:42;;;;;;;90.32;32.48;;;;;;;-1.64;82.21;97518.35;1669995;85;27387;-61
2021/12/11 00:55:31;;;;;;;94.20;35.45;;;;;;;-1.64;82.13;97531.23;1668823;85;27383;-61
2021/12/11 00:58:12;;;;;;;112.47;39.90;;;;;;;-1.63;82.14;97534.73;1660000;85;25462;-62
2021/12/11 01:00:46;;;;;;;108.95;38.42;;;;;;;-1.66;81.73;97537.95;1639781;87;25741;-63
2021/12/11 01:03:18;;;;;;;116.55;39.35;;;;;;;-1.68;81.82;97540.07;1639325;86;25680;-63
2021/12/11 01:05:50;;;;;;;92.97;33.75;;;;;;;-1.70;81.76;97544.36;1639545;87;27462;-64
2021/12/11 01:08:32;;;;;;;105.67;37.00;;;;;;;-1.62;82.06;97546.30;1639328;87;25472;-63
2021/12/11 01:11:19;;;;;;;88.97;31.80;;;;;;;-1.54;82.06;97543.09;1639528;87;25456;-62
2021/12/11 01:14:05;;;;;;;89.70;33.13;;;;;;;-1.59;81.66;97540.38;1639132;87;25759;-65
2021/12/11 01:16:25;;;;;;;99.40;35.88;;;;;;;-1.62;81.84;97551.67;1637239;87;25516;-64
2021/12/11 01:18:56;;;;;;;97.10;36.88;;;;;;;-1.58;81.92;97554.11;1649771;87;27449;-62
2021/12/11 01:21:42;;;;;;;107.25;39.03;;;;;;;-1.55;81.90;97562.43;1623123;87;25492;-64
2021/12/11 01:26:41;;;;;;;106.10;40.17;;;;;;;-1.50;81.59;97571.61;1623186;87;25665;-64
2021/12/11 01:29:08;;;;;;;106.60;40.30;;;;;;;-1.54;81.62;97566.76;1649150;86;25733;-63
2021/12/11 01:31:36;;;;;;;91.28;35.13;;;;;;;-1.51;81.73;97580.20;1622935;87;27477;-65
2021/12/11 01:34:03;;;;;;;105.32;38.45;;;;;;;-1.51;81.44;97580.20;1649409;86;25811;-63
2021/12/11 01:36:30;;;;;;;126.95;43.98;;;;;;;-1.58;81.22;97583.11;1622934;88;25656;-66
2021/12/11 01:39:01;;;;;;;115.15;38.25;;;;;;;-1.60;81.31;97586.61;1649433;87;25724;-66
2021/12/11 01:41:29;;;;;;;;;;;;;;;-1.64;81.16;97593.02;1625362;88;25428;-61
2021/12/11 01:43:59;;;;;;;107.22;36.00;;;;;;;-1.69;81.36;97591.67;1621485;88;27458;-67
2021/12/11 01:46:27;;;;;;;97.35;36.42;;;;;;;-1.71;81.36;97596.48;1623227;88;25959;-62
2021/12/11 01:49:00;;;;;;;99.92;37.25;;;;;;;-1.72;81.44;97596.73;1649772;86;25622;-61
2021/12/11 01:51:41;;;;;;;82.67;29.70;;;;;;;-1.67;81.33;97603.50;1623151;87;25707;-61
2021/12/11 01:54:17;;;;;;;98.07;34.15;;;;;;;-1.80;81.10;97604.22;1630752;86;26015;-62
2021/12/11 01:56:48;;;;;;;97.10;35.00;;;;;;;-1.87;81.28;97606.33;1638857;86;27452;-61
2021/12/11 01:59:23;;;;;;;94.05;34.25;;;;;;;-1.82;81.75;97605.53;1687332;84;25867;-61
2021/12/11 02:01:57;;;;;;;87.85;33.05;;;;;;;-1.80;81.45;97606.09;1698441;84;25588;-61
2021/12/11 02:04:27;;;;;;;95.15;37.00;;;;;;;-1.85;81.36;97604.70;1699423;84;25804;-61
2021/12/11 02:06:56;;;;;;;101.02;36.33;;;;;;;-1.87;81.46;97610.36;1699845;84;25458;-62
2021/12/11 02:09:27;;;;;;;92.37;35.05;;;;;;;-1.86;81.54;97609.80;1704367;84;27460;-62
2021/12/11 02:12:08;;;;;;;94.42;36.10;;;;;;;-1.83;81.61;97613.31;1704709;84;25461;-61
2021/12/11 02:14:40;;;;;;;92.33;35.70;;;;;;;-1.80;81.79;97618.99;1704982;84;25669;-62
2021/12/11 02:17:06;;;;;;;97.85;36.53;;;;;;;-1.72;81.72;97623.60;1704263;84;25656;-61
2021/12/11 02:19:38;;;;;;;102.32;37.50;;;;;;;-1.68;81.59;97622.00;1704665;84;25631;-61
2021/12/11 02:22:09;;;;;;;89.28;34.60;;;;;;;-1.67;81.44;97628.47;1704542;84;25919;-61
2021/12/11 02:24:47;;;;;;;95.10;35.35;;;;;;;-1.66;81.50;97625.25;1704545;84;25470;-61
2021/12/11 02:27:24;;;;;;;103.65;36.42;;;;;;;-1.65;81.35;97630.89;1704744;84;25640;-62
2021/12/11 02:30:20;;;;;;;104.10;37.70;;;;;;;-1.68;81.25;97630.88;1701938;84;25801;-62
2021/12/11 02:32:53;;;;;;;102.87;37.88;;;;;;;-1.66;81.52;97638.69;1704502;84;25596;-62
2021/12/11 02:35:33;;;;;;;100.10;37.28;;;;;;;-1.60;81.72;97638.17;1704083;84;27495;-61
2021/12/11 02:38:11;;;;;;;95.57;35.83;;;;;;;-1.50;81.78;97649.54;1690386;84;25786;-61
2021/12/11 02:40:49;;;;;;;97.67;37.17;;;;;;;-1.46;81.33;97650.62;1704372;84;25675;-62
2021/12/11 02:43:38;;;;;;;100.30;38.00;;;;;;;-1.45;81.34;97653.58;1703770;84;25727;-61
2021/12/11 02:46:12;;;;;;;99.47;39.00;;;;;;;-1.42;81.17;97659.26;1703920;84;25620;-61
2021/12/11 02:48:53;;;;;;;100.27;37.63;;;;;;;-1.36;81.31;97661.98;1704382;84;27466;-61
2021/12/11 02:51:27;;;;;;;100.67;39.75;;;;;;;-1.34;81.12;97667.37;1703077;84;25594;-61
2021/12/11 02:54:05;;;;;;;111.52;39.00;;;;;;;-1.33;80.83;97663.60;1703666;84;25477;-61
2021/12/11 02:56:36;;;;;;;101.62;36.95;;;;;;;-1.37;80.80;97671.92;1703982;84;25669;-61
2021/12/11 02:59:08;;;;;;;109.95;39.55;;;;;;;-1.38;80.81;97663.59;1676131;84;25744;-62
2021/12/11 03:01:39;;;;;;;109.72;41.83;;;;;;;-1.38;80.84;97674.34;1639931;87;27461;-61
2021/12/11 03:04:18;;;;;;;105.87;40.08;;;;;;;-1.37;80.90;97682.67;1639610;87;25782;-61
2021/12/11 03:06:44;;;;;;;97.50;38.88;;;;;;;-1.37;80.76;97678.64;1638314;87;25501;-61
2021/12/11 03:09:13;;;;;;;107.50;40.63;;;;;;;-1.37;80.79;97680.50;1638951;87;25718;-63
2021/12/11 03:11:40;;;;;;;107.60;41.75;;;;;;;-1.41;80.70;97689.08;1639843;87;25644;-64
2021/12/11 03:14:12;;;;;;;115.72;45.28;;;;;;;-1.41;80.70;97684.27;1639678;87;27826;-63
2021/12/11 03:16:41;;;;;;;113.65;42.90;;;;;;;-1.35;80.96;97691.81;1639398;87;25696;-61
2021/12/11 03:19:11;;;;;;;113.62;42.67;;;;;;;-1.29;80.95;97692.13;1639778;87;25704;-62
2021/12/11 03:21:39;;;;;;;106.83;40.40;;;;;;;-1.26;80.81;97693.74;1639879;87;25693;-63
2021/12/11 03:24:09;;;;;;;118.40;42.88;;;;;;;-1.21;80.88;97694.86;1639829;87;25821;-62
2021/12/11 03:26:38;;;;;;;105.67;40.10;;;;;;;-1.21;80.55;97697.55;1639779;85;27429;-62
2021/12/11 03:29:07;;;;;;;111.68;41.70;;;;;;;-1.22;80.69;97700.77;1639662;87;25758;-61
2021/12/11 03:31:36;;;;;;;96.82;39.73;;;;;;;-1.21;80.50;97698.34;1639816;87;25635;-62
2021/12/11 03:34:07;;;;;;;113.35;42.35;;;;;;;-1.19;80.37;97700.77;1639362;87;25763;-61
2021/12/11 03:36:35;;;;;;;101.77;40.17;;;;;;;-1.23;80.26;97696.47;1639724;87;25440;-63
2021/12/11 03:39:09;;;;;;;117.00;42.88;;;;;;;-1.29;80.23;97700.19;1639542;87;27454;-61
2021/12/11 03:41:36;;;;;;;126.92;45.92;;;;;;;-1.33;80.35;97700.44;1639342;87;25682;-62
2021/12/11 03:44:04;;;;;;;139.18;48.68;;;;;;;-1.44;80.39;97694.19;1639436;87;25690;-61
2021/12/11 03:46:31;;;;;;;131.10;42.83;;;;;;;-1.52;80.47;97702.20;1639738;87;26356;-61
2021/12/11 03:49:02;;;;;;;139.15;45.80;;;;;;;-1.62;80.48;97705.60;1639443;87;25492;-61
2021/12/11 03:51:33;;;;;;;135.00;47.53;;;;;;;-1.69;80.81;97703.67;1639464;87;27450;-62
2021/12/11 03:54:04;;;;;;;140.22;46.75;;;;;;;-1.72;81.03;97698.30;1638345;87;34640;-61
2021/12/11 03:56:31;;;;;;;130.22;46.28;;;;;;;-1.65;81.30;97704.25;1639729;87;25650;-62
2021/12/11 03:58:58;;;;;;;137.25;45.55;;;;;;;-1.56;81.31;97716.67;1654380;84;25763;-62
2021/12/11 04:01:32;;;;;;;119.20;43.85;;;;;;;-1.52;81.09;97716.42;1676746;85;25759;-62
2021/12/11 04:04:04;;;;;;;115.50;42.70;;;;;;;-1.54;80.87;97713.72;1676529;85;28061;-61
2021/12/11 04:06:31;;;;;;;120.45;45.35;;;;;;;-1.54;80.79;97713.72;1676195;85;25689;-61
2021/12/11 04:09:00;;;;;;;126.85;46.48;;;;;;;-1.55;80.91;97719.63;1676239;85;25620;-62
2021/12/11 04:11:31;;;;;;;120.17;46.55;;;;;;;-1.52;80.91;97719.66;1676622;85;26366;-61
2021/12/11 04:14:03;;;;;;;125.15;46.45;;;;;;;-1.48;81.00;97715.91;1675534;85;25653;-62
2021/12/11 04:16:32;;;;;;;123.53;43.40;;;;;;;-1.44;80.98;97718.38;1669279;86;27451;-61
2021/12/11 04:18:59;;;;;;;127.38;45.95;;;;;;;-1.43;80.86;97719.98;1669122;86;25689;-61
2021/12/11 04:21:26;;;;;;;123.02;45.17;;;;;;;-1.43;80.81;97721.33;1669321;86;25412;-61
2021/12/11 04:23:53;;;;;;;119.28;41.80;;;;;;;-1.40;80.73;97731.04;1669183;86;25731;-61
2021/12/11 04:26:19;;;;;;;124.67;43.55;;;;;;;-1.44;80.44;97723.75;1668973;86;25495;-61
2021/12/11 04:28:47;;;;;;;129.38;44.60;;;;;;;-1.50;80.52;97731.50;1669042;86;27979;-61
2021/12/11 04:31:21;;;;;;;126.38;44.90;;;;;;;-1.56;80.55;97740.03;1668826;86;25427;-61
2021/12/11 04:33:52;;;;;;;138.35;47.70;;;;;;;-1.59;81.03;97733.30;1669385;86;25490;-64
2021/12/11 04:36:24;;;;;;;129.20;43.78;;;;;;;-1.52;81.11;97739.81;1669191;86;32641;-62
2021/12/11 04:38:52;;;;;;;127.50;45.55;;;;;;;-1.49;81.04;97737.14;1669400;86;25586;-62
2021/12/11 04:41:27;;;;;;;134.15;46.25;;;;;;;-1.47;81.03;97738.49;1669202;86;27365;-62
2021/12/11 04:43:56;;;;;;;130.12;46.20;;;;;;;-1.48;80.85;97734.20;1668779;86;25617;-64
2021/12/11 04:46:22;;;;;;;130.40;44.75;;;;;;;-1.49;80.85;97735.80;1669138;86;25480;-65
2021/12/11 04:49:02;;;;;;;134.47;45.58;;;;;;;-1.50;80.91;97744.94;1669174;86;25781;-63
2021/12/11 04:51:34;;;;;;;142.80;48.98;;;;;;;-1.50;80.95;97748.96;1667745;86;25694;-63
2021/12/11 05:02:09;;;;;;;136.00;50.25;;;;;;;-1.49;80.98;97758.63;1658838;86;25593;-62
2021/12/11 05:07:08;;;;;;;139.62;48.73;;;;;;;-1.47;81.00;97768.61;1658815;86;26607;-62
2021/12/11 05:09:39;;;;;;;127.70;46.35;;;;;;;-1.47;81.09;97761.89;1657735;86;25864;-62
2021/12/11 05:12:29;;;;;;;116.95;45.05;;;;;;;-1.47;81.12;97765.36;1657908;86;25694;-63
2021/12/11 05:14:47;;;;;;;140.30;47.93;;;;;;;-1.40;81.36;97770.53;1658852;86;25721;-62
2021/12/11 05:17:14;;;;;;;119.67;46.42;;;;;;;-1.34;81.29;97770.85;1659144;86;25836;-63
2021/12/11 05:19:42;;;;;;;109.05;43.20;;;;;;;-1.32;81.30;97769.25;1658754;86;27552;-63
2021/12/11 05:22:10;;;;;;;111.10;42.23;;;;;;;-1.28;81.28;97776.55;1659133;86;25559;-61
2021/12/11 05:24:41;;;;;;;109.67;40.43;;;;;;;-1.25;81.25;97773.86;1658864;86;25492;-62
2021/12/11 05:27:08;;;;;;;103.07;38.92;;;;;;;-1.19;81.26;97780.08;1659098;86;25806;-62
2021/12/11 05:29:35;;;;;;;96.32;37.48;;;;;;;-1.14;81.18;97784.98;1659023;86;25750;-65
2021/12/11 05:32:04;;;;;;;91.25;37.08;;;;;;;-1.08;81.18;97787.16;1658776;86;27499;-61
2021/12/11 05:34:31;;;;;;;116.75;42.80;;;;;;;-1.05;81.08;97787.99;1659049;86;25679;-61
2021/12/11 05:36:58;;;;;;;118.40;46.55;;;;;;;-1.06;80.91;97783.66;1668588;85;25629;-62
2021/12/11 05:39:24;;;;;;;127.02;47.75;;;;;;;-1.00;81.39;97784.53;1670889;85;25758;-61
2021/12/11 05:41:52;;;;;;;127.62;49.00;;;;;;;-0.95;81.36;97790.48;1670991;85;25759;-61
2021/12/11 05:44:22;;;;;;;172.28;57.05;;;;;;;-0.92;81.12;97793.44;1671489;85;27465;-61
2021/12/11 05:46:51;;;;;;;161.40;59.90;;;;;;;-0.97;80.86;97800.15;1671165;85;25751;-61
2021/12/11 05:49:17;;;;;;;156.97;60.52;;;;;;;-1.06;80.97;97801.14;1671362;85;25502;-61
2021/12/11 05:51:47;;;;;;;157.75;61.18;;;;;;;-0.98;81.45;97813.86;1671355;85;25962;-61
2021/12/11 05:54:21;;;;;;;165.92;62.70;;;;;;;-1.01;80.95;97821.36;1671616;85;25601;-62
2021/12/11 05:56:48;;;;;;;163.80;60.98;;;;;;;-0.96;81.37;97823.80;1670788;85;27501;-64
2021/12/11 05:59:17;;;;;;;127.47;49.30;;;;;;;-0.94;81.60;97822.50;1677980;84;25621;-61
2021/12/11 06:01:52;;;;;;;127.92;48.63;;;;;;;-0.93;81.45;97831.35;1704810;84;25424;-63
2021/12/11 06:04:24;;;;;;;146.25;54.03;;;;;;;-0.89;81.31;97827.89;1703530;84;25624;-63
2021/12/11 06:06:52;;;;;;;160.18;60.65;;;;;;;-0.91;81.26;97826.53;1704850;84;25472;-62
2021/12/11 06:09:22;;;;;;;150.07;58.38;;;;;;;-0.94;81.08;97828.40;1704381;84;27477;-62
2021/12/11 06:11:54;;;;;;;149.93;54.73;;;;;;;-0.97;81.17;97828.39;1705078;84;25652;-62
2021/12/11 06:14:22;;;;;;;148.62;54.20;;;;;;;-0.96;81.21;97831.34;1704303;84;25639;-62
2021/12/11 06:16:53;;;;;;;152.75;54.88;;;;;;;-0.99;81.13;97828.34;1704798;84;25787;-63
2021/12/11 06:19:21;;;;;;;150.22;56.60;;;;;;;-1.03;81.29;97839.62;1704584;84;25694;-61
2021/12/11 06:21:53;;;;;;;144.25;53.50;;;;;;;-1.06;81.32;97841.48;1704530;84;27989;-62
2021/12/11 06:24:21;;;;;;;146.90;52.73;;;;;;;-1.03;81.57;97841.52;1704582;84;25643;-62
2021/12/11 06:26:48;;;;;;;122.60;47.70;;;;;;;-1.06;81.30;97851.45;1704729;84;25457;-62
2021/12/11 06:29:14;;;;;;;142.35;50.38;;;;;;;-1.08;81.32;97850.36;1704360;84;25731;-61
2021/12/11 06:31:43;;;;;;;148.93;53.13;;;;;;;-1.06;81.33;97842.83;1704430;84;25785;-62
2021/12/11 06:34:11;;;;;;;130.27;50.17;;;;;;;-1.07;81.23;97845.80;1704410;84;26786;-62
2021/12/11 06:36:38;;;;;;;147.68;52.33;;;;;;;-1.09;81.21;97850.09;1704231;84;25626;-62
2021/12/11 06:39:11;;;;;;;139.88;50.90;;;;;;;-1.11;81.45;97857.59;1704639;84;25719;-62
2021/12/11 06:41:42;;;;;;;150.35;52.08;;;;;;;-1.12;81.47;97866.73;1704515;84;25801;-62
2021/12/11 06:44:09;;;;;;;150.20;54.70;;;;;;;-1.09;81.68;97864.06;1704933;84;25417;-62
2021/12/11 06:46:41;;;;;;;145.95;54.63;;;;;;;-1.06;81.55;97879.69;1704408;84;27433;-63
2021/12/11 06:49:08;;;;;;;147.60;53.35;;;;;;;-1.05;81.57;97878.61;1719133;81;25474;-62
2021/12/11 06:51:35;;;;;;;141.00;48.60;;;;;;;-1.05;81.37;97888.02;1673267;84;25679;-62
2021/12/11 06:54:09;;;;;;;156.47;53.38;;;;;;;-1.08;81.37;97887.19;1708032;83;25723;-62
2021/12/11 06:56:38;;;;;;;148.78;52.85;;;;;;;-1.09;81.41;97897.16;1716008;82;25687;-62
2021/12/11 06:59:06;;;;;;;145.77;52.33;;;;;;;-1.07;81.42;97900.38;1724541;83;28152;-62
2021/12/11 07:01:34;;;;;;;163.77;56.05;;;;;;;-1.06;81.43;97894.48;1676602;85;25592;-63
2021/12/11 07:04:02;;;;;;;142.70;52.55;;;;;;;-1.04;81.50;97890.45;1673551;85;25416;-61
2021/12/11 07:06:31;;;;;;;155.95;52.50;;;;;;;-0.96;81.48;97895.89;1674052;84;25814;-61
2021/12/11 07:09:00;;;;;;;159.85;56.85;;;;;;;-0.93;81.47;97902.11;1673053;85;25687;-62
2021/12/11 07:11:27;;;;;;;156.02;59.58;;;;;;;-0.90;81.44;97912.36;1673113;85;25983;-61
2021/12/11 07:13:53;;;;;;;161.95;58.30;;;;;;;-0.85;81.43;97916.97;1671417;85;25490;-62
2021/12/11 07:16:19;;;;;;;144.62;54.38;;;;;;;-0.82;81.49;97929.91;1673952;85;25494;-62
2021/12/11 07:18:47;;;;;;;141.10;51.60;;;;;;;-0.79;81.52;97940.67;1673546;85;26538;-61
2021/12/11 07:21:14;;;;;;;152.95;53.45;;;;;;;-0.76;81.40;97934.78;1675388;85;25675;-62
2021/12/11 07:23:47;;;;;;;139.20;53.50;;;;;;;-0.70;81.54;97942.36;1673924;85;27904;-65
2021/12/11 07:26:16;;;;;;;;;;;;;;;-0.60;81.64;97949.70;1676495;85;25768;-66
2021/12/11 07:28:46;;;;;;;163.12;59.70;;;;;;;-0.60;81.20;97948.36;1676332;84;26371;-63
2021/12/11 07:31:14;;;;;;;131.18;48.83;;;;;;;-0.53;81.34;97959.71;1671292;85;27906;-64
2021/12/11 07:33:40;;;;;;;128.40;48.42;;;;;;;-0.52;81.25;97967.53;1673978;84;25447;-63
2021/12/11 07:36:07;;;;;;;130.65;46.92;;;;;;;-0.55;81.24;97969.39;1684550;85;27551;-62
2021/12/11 07:38:34;;;;;;;145.32;50.98;;;;;;;-0.54;81.22;97979.63;1687056;85;25728;-64
2021/12/11 07:41:04;;;;;;;137.50;50.85;;;;;;;-0.47;81.37;97972.66;1687150;85;25732;-63
2021/12/11 07:43:31;;;;;;;129.05;47.25;;;;;;;-0.40;81.52;97971.94;1687344;85;25724;-63
2021/12/11 07:45:58;;;;;;;122.62;46.70;;;;;;;-0.33;81.21;97978.42;1687239;84;25455;-63
2021/12/11 07:48:26;;;;;;;121.97;45.65;;;;;;;-0.33;81.03;97984.62;1686302;85;27377;-63
2021/12/11 07:50:53;;;;;;;130.47;47.78;;;;;;;-0.26;81.18;97989.25;1687068;85;25652;-62
2021/12/11 07:53:21;;;;;;;126.72;48.08;;;;;;;-0.19;81.12;97998.98;1686967;85;25692;-61
2021/12/11 07:55:48;;;;;;;119.82;46.63;;;;;;;-0.14;81.07;98005.21;1686844;85;25756;-62
2021/12/11 07:58:14;;;;;;;135.97;49.38;;;;;;;-0.08;81.04;97997.17;1686897;85;25624;-61
2021/12/11 08:00:47;;;;;;;140.28;49.45;;;;;;;0.01;81.03;98001.01;1696720;84;27507;-62
2021/12/11 08:03:17;;;;;;;128.75;49.00;;;;;;;0.01;80.83;97994.80;1704623;82;25867;-63
2021/12/11 08:05:47;;;;;;;125.38;50.23;;;;;;;0.04;81.03;98004.53;1704780;84;25450;-61
2021/12/11 08:08:15;;;;;;;166.73;58.78;;;;;;;0.11;81.03;98004.28;1704825;84;25702;-62
2021/12/11 08:10:46;;;;;;;262.23;81.42;;;;;;;0.19;81.09;98006.48;1704457;82;25435;-62
2021/12/11 08:13:14;;;;;;;269.15;86.50;;;;;;;0.18;80.77;98002.19;1704803;82;30537;-63
2021/12/11 08:15:41;;;;;;;227.78;87.65;;;;;;;0.23;80.99;98011.63;1704244;84;25418;-66
2021/12/11 08:18:10;;;;;;;266.25;85.30;;;;;;;0.28;80.59;98015.41;1704538;82;25592;-66
2021/12/11 08:20:39;;;;;;;276.98;91.22;;;;;;;0.27;80.54;98031.31;1704747;82;25741;-62
2021/12/11 08:23:06;;;;;;;272.20;91.15;;;;;;;0.27;80.53;98040.75;1704525;82;25481;-63
2021/12/11 08:25:35;;;;;;;253.75;86.53;;;;;;;0.33;80.81;98046.44;1704720;84;27627;-61
2021/12/11 08:28:04;;;;;;;217.03;72.42;;;;;;;0.44;80.75;98046.78;1704158;84;25771;-62
2021/12/11 08:30:35;;;;;;;244.97;83.03;;;;;;;0.55;80.45;98044.92;1704691;84;25426;-62
2021/12/11 08:33:02;;;;;;;182.53;69.85;;;;;;;0.60;79.96;98038.22;1704474;82;25790;-62
2021/12/11 08:35:29;;;;;;;195.62;72.20;;;;;;;0.67;80.66;98048.77;1704380;84;25604;-64
2021/12/11 08:37:57;;;;;;;200.57;73.30;;;;;;;0.73;80.17;98058.51;1704742;84;28137;-63
2021/12/11 08:40:28;;;;;;;179.18;67.62;;;;;;;0.74;80.52;98062.82;1704593;82;25497;-64
2021/12/11 08:42:56;;;;;;;;;;;;;;;0.80;80.27;98081.17;1707247;84;25779;-64
2021/12/11 08:45:43;;;;;;;163.97;63.15;;;;;;;0.90;80.17;98082.30;1704733;84;25680;-63
2021/12/11 08:47:58;;;;;;;195.80;69.62;;;;;;;0.95;79.90;98083.67;1705087;84;25423;-63
2021/12/11 08:50:29;;;;;;;144.00;56.75;;;;;;;1.02;80.05;98076.66;1704987;82;28194;-64
2021/12/11 08:52:58;;;;;;;;;;;;;;;1.09;79.91;98089.36;1707214;82;25847;-63
2021/12/11 08:55:30;;;;;;;128.53;47.95;;;;;;;1.15;79.30;98104.49;1704337;84;25668;-64
2021/12/11 08:57:58;;;;;;;143.02;54.90;;;;;;;1.19;78.88;98105.61;1702670;84;25690;-63
2021/12/11 09:00:39;;;;;;;136.47;53.65;;;;;;;1.26;79.07;98106.69;1698869;84;25495;-63
2021/12/11 09:03:20;;;;;;;130.30;49.35;;;;;;;1.33;79.40;98104.57;1687348;85;27395;-66
2021/12/11 09:06:10;;;;;;;119.02;47.38;;;;;;;1.43;78.92;98116.45;1687292;85;25636;-63
2021/12/11 09:08:47;;;;;;;121.05;48.02;;;;;;;1.45;78.49;98119.17;1686888;85;25567;-63
2021/12/11 09:11:40;;;;;;;120.17;48.87;;;;;;;1.40;78.23;98125.90;1686926;85;26118;-64
2021/12/11 09:14:18;;;;;;;113.42;45.58;;;;;;;1.41;77.99;98133.47;1645969;85;25589;-64
2021/12/11 09:17:07;;;;;;;110.17;46.63;;;;;;;1.42;77.37;98138.61;1687384;85;27761;-63
2021/12/11 09:19:54;;;;;;;109.30;45.25;;;;;;;1.48;77.59;98140.24;1686368;84;25606;-64
2021/12/11 09:22:41;;;;;;;118.33;48.45;;;;;;;1.53;77.45;98152.12;1686671;85;25507;-63
2021/12/11 09:25:19;;;;;;;115.05;48.38;;;;;;;1.52;76.88;98153.21;1687010;84;26447;-63
2021/12/11 09:27:57;;;;;;;193.43;78.67;;;;;;;1.46;75.69;98159.11;1686469;85;25613;-63
2021/12/11 09:30:29;;;;;;;215.90;84.20;;;;;;;1.42;76.23;98161.55;1686666;85;28346;-63
2021/12/11 09:33:08;;;;;;;168.05;63.15;;;;;;;1.44;76.37;98164.78;1686532;85;25625;-63
2021/12/11 09:35:52;;;;;;;140.57;48.05;;;;;;;1.50;76.84;98171.03;1686370;85;25627;-63
2021/12/11 09:38:24;;;;;;;142.35;47.60;;;;;;;1.51;76.29;98171.30;1686672;85;25751;-63
2021/12/11 09:40:57;;;;;;;101.35;42.15;;;;;;;1.54;76.38;98173.46;1686430;85;25676;-63
2021/12/11 09:43:50;;;;;;;132.45;48.10;;;;;;;1.59;76.22;98180.77;1686529;84;25909;-63
2021/12/11 09:46:22;;;;;;;156.35;50.60;;;;;;;1.59;76.14;98184.82;1678621;85;27239;-64
2021/12/11 09:48:50;;;;;;;501.57;152.22;;;;;;;1.58;74.81;98187.26;1684161;85;25602;-63
2021/12/11 09:51:22;;;;;;;254.53;77.50;;;;;;;1.58;75.56;98188.05;1687106;85;25682;-64
2021/12/11 09:53:53;;;;;;;152.70;54.27;;;;;;;1.59;75.39;98188.88;1687047;85;25664;-64
2021/12/11 09:56:34;;;;;;;405.63;126.95;;;;;;;1.63;75.94;98196.70;1687363;85;27415;-63
2021/12/11 09:59:05;;;;;;;407.90;131.87;;;;;;;1.66;75.94;98194.00;1684490;85;25436;-63
2021/12/11 10:01:36;;;;;;;348.68;120.15;;;;;;;1.69;74.89;98202.92;1714366;83;25405;-63
2021/12/11 10:04:11;;;;;;;226.07;78.78;;;;;;;1.71;74.90;98206.19;1725535;83;25699;-63
2021/12/11 10:07:23;;;;;;;167.35;62.25;;;;;;;1.72;75.02;98215.91;1725627;83;25572;-62
2021/12/11 10:09:25;;;;;;;133.95;50.17;;;;;;;1.71;74.66;98223.75;1722313;83;25911;-63
2021/12/11 10:12:18;;;;;;;110.48;44.50;;;;;;;1.70;74.89;98228.89;1728467;82;25591;-65
2021/12/11 10:14:49;;;;;;;106.90;40.20;;;;;;;1.68;74.33;98229.67;1728392;83;26253;-64
2021/12/11 10:17:21;;;;;;;105.97;39.18;;;;;;;1.59;73.45;98238.31;1724003;82;25724;-63
2021/12/11 10:19:52;;;;;;;186.05;52.38;;;;;;;1.59;73.99;98241.02;1725508;83;25742;-66
2021/12/11 10:22:23;;;;;;;171.72;49.55;;;;;;;1.62;74.37;98231.56;1725593;83;27419;-68
2021/12/11 10:24:51;;;;;;;300.10;82.62;;;;;;;1.69;74.55;98232.11;1724037;82;25659;-63
2021/12/11 10:27:23;;;;;;;235.53;71.47;;;;;;;1.74;74.99;98236.20;1728208;83;25633;-63
2021/12/11 10:29:51;;;;;;;215.80;66.30;;;;;;;1.83;74.94;98237.83;1728288;83;25763;-63
2021/12/11 10:32:25;;;;;;;192.10;56.88;;;;;;;1.89;74.75;98238.64;1725612;83;25591;-63
2021/12/11 10:34:56;;;;;;;182.20;53.15;;;;;;;1.96;74.83;98235.14;1728781;83;27406;-62
2021/12/11 10:37:33;;;;;;;270.95;69.22;;;;;;;2.00;74.60;98233.55;1728577;83;25769;-64
2021/12/11 10:40:04;;;;;;;237.40;60.78;;;;;;;2.06;74.55;98235.72;1725074;83;25713;-62
2021/12/11 10:42:30;;;;;;;209.90;54.38;;;;;;;2.13;73.92;98237.61;1724392;83;25821;-62
2021/12/11 10:45:00;;;;;;;168.00;47.43;;;;;;;2.17;73.87;98252.77;1725323;83;25467;-63
2021/12/11 10:47:34;;;;;;;176.57;47.50;;;;;;;2.20;74.23;98244.12;1728826;83;27326;-63
2021/12/11 10:50:08;;;;;;;108.25;33.85;;;;;;;2.24;73.74;98242.49;1728570;83;25718;-63
2021/12/11 10:52:36;;;;;;;129.23;39.50;;;;;;;2.26;73.82;98246.28;1725354;82;25671;-63
2021/12/11 10:55:08;;;;;;;268.12;59.80;;;;;;;2.30;73.79;98248.70;1725310;83;25738;-63
2021/12/11 10:57:34;;;;;;;159.30;40.80;;;;;;;2.32;73.09;98256.02;1725569;83;25732;-63
2021/12/11 11:00:06;;;;;;;55.95;20.35;;;;;;;2.36;73.22;98250.90;1725531;83;27285;-65
2021/12/11 11:02:33;;;;;;;108.10;27.90;;;;;;;2.35;72.48;98256.84;1712201;83;26098;-64
2021/12/11 11:05:05;;;;;;;57.73;18.48;;;;;;;2.37;72.05;98257.39;1694483;84;25493;-63
2021/12/11 11:07:32;;;;;;;52.40;18.75;;;;;;;2.35;72.41;98256.84;1694322;84;25767;-63
2021/12/11 11:10:02;;;;;;;77.60;21.15;;;;;;;2.35;72.33;98253.31;1694650;84;25463;-63
2021/12/11 11:12:31;;;;;;;91.53;28.25;;;;;;;2.33;72.37;98255.49;1710436;83;27641;-63
2021/12/11 11:14:59;;;;;;;30.17;12.98;;;;;;;2.31;72.31;98251.70;1704699;84;25708;-63
2021/12/11 11:17:30;;;;;;;26.68;13.13;;;;;;;2.32;72.17;98254.67;1704792;84;25709;-62
2021/12/11 11:19:57;;;;;;;;;;;;;;;2.30;72.11;98258.73;1706930;82;25760;-62
2021/12/11 11:22:29;;;;;;;21.45;9.33;;;;;;;2.25;72.37;98264.38;1704483;84;25743;-63
2021/12/11 11:25:04;;;;;;;22.40;10.80;;;;;;;2.27;71.96;98270.87;1704808;82;27380;-62
2021/12/11 11:27:30;;;;;;;21.12;10.82;;;;;;;2.27;71.41;98272.79;1703111;84;25604;-62
2021/12/11 11:29:57;;;;;;;22.62;11.10;;;;;;;2.25;72.12;98270.36;1704643;82;25660;-63
2021/12/11 11:32:31;;;;;;;18.48;9.28;;;;;;;2.27;71.65;98266.82;1704656;82;25724;-63
2021/12/11 11:35:07;;;;;;;17.92;9.15;;;;;;;2.25;71.62;98266.30;1704448;84;25438;-63
2021/12/11 11:37:35;;;;;;;19.52;10.13;;;;;;;2.28;71.89;98267.11;1704814;84;27441;-66
2021/12/11 11:40:11;;;;;;;26.05;10.85;;;;;;;2.24;71.33;98264.66;1704320;84;25674;-65
2021/12/11 11:42:38;;;;;;;22.32;10.25;;;;;;;2.28;71.61;98268.47;1702021;82;25668;-63
2021/12/11 11:45:08;;;;;;;21.23;10.13;;;;;;;2.29;71.68;98267.91;1670889;85;27788;-64
2021/12/11 11:47:36;;;;;;;21.65;11.03;;;;;;;2.30;71.24;98274.40;1671472;85;25653;-65